Time;durP1;ratioP1;P1;durP2;ratioP2;P2;SDS_P1;SDS_P2;PMS_P1;PMS_P2;Temp;Humidity;BMP_temperature;BMP_pressure;BME280_temperature;BME280_humidity;BME280_pressure;Samples;Min_cycle;Max_cycle;Signal;HPM_P1;HPM_P2
2021/04/11 00:00:23;;;;;;;16.00;3.58;;;;;;;2.72;81.87;101001.53;5050365;28;20037;-65
2021/04/11 00:02:49;;;;;;;6.28;2.38;;;;;;;2.74;82.89;100983.81;5050309;28;20139;-64
2021/04/11 00:05:17;;;;;;;19.45;3.88;;;;;;;2.78;82.61;100973.88;5049366;28;20036;-64
2021/04/11 00:07:42;;;;;;;12.40;3.38;;;;;;;2.71;83.02;100964.72;5050010;28;20036;-64
2021/04/11 00:10:13;;;;;;;10.17;3.13;;;;;;;2.64;83.02;100950.28;5032860;28;20033;-64
2021/04/11 00:12:39;;;;;;;9.18;3.20;;;;;;;2.69;84.09;100953.41;5050322;28;20075;-64
2021/04/11 00:15:07;;;;;;;8.80;3.53;;;;;;;2.58;84.50;100950.72;5051535;28;20067;-64
2021/04/11 00:17:33;;;;;;;11.35;3.15;;;;;;;2.70;84.52;100955.97;5052946;28;20051;-64
2021/04/11 00:19:58;;;;;;;13.13;2.87;;;;;;;2.63;84.40;100945.97;5053291;28;20044;-64
2021/04/11 00:22:23;;;;;;;16.90;3.77;;;;;;;2.61;84.94;100939.94;5053316;28;20109;-64
2021/04/11 00:24:49;;;;;;;9.83;3.43;;;;;;;2.70;85.12;100939.31;5036576;28;20121;-64
2021/04/11 00:27:14;;;;;;;14.35;4.43;;;;;;;2.52;84.90;100931.72;5053953;28;20087;-64
2021/04/11 00:29:41;;;;;;;14.50;4.67;;;;;;;2.73;85.04;100933.81;5053889;28;20037;-64
2021/04/11 00:32:07;;;;;;;8.23;3.50;;;;;;;2.62;84.80;100916.13;5054442;28;20116;-64
2021/04/11 00:34:33;;;;;;;;;;;;;;;2.66;84.91;100917.56;5054891;28;20120;-64
2021/04/11 00:36:58;;;;;;;;;;;;;;;2.48;85.09;100909.19;5054736;28;20011;-64
2021/04/11 00:39:24;;;;;;;13.83;3.57;;;;;;;2.56;85.68;100899.88;5054021;28;19924;-64
2021/04/11 00:41:56;;;;;;;11.07;2.50;;;;;;;2.53;85.68;100906.22;5053407;28;20056;-64
2021/04/11 00:44:22;;;;;;;10.05;3.75;;;;;;;2.45;85.91;100904.09;5053162;28;20036;-64
2021/04/11 00:46:51;;;;;;;8.50;2.90;;;;;;;2.46;86.29;100882.06;5054319;28;20036;-64
2021/04/11 00:49:31;;;;;;;8.57;3.80;;;;;;;2.42;86.42;100877.97;5036308;28;20036;-64
2021/04/11 00:51:57;;;;;;;16.95;4.60;;;;;;;2.50;86.51;100870.34;5054166;28;20090;-64
2021/04/11 00:54:22;;;;;;;14.50;4.15;;;;;;;2.48;86.28;100866.13;5054091;28;20104;-64
2021/04/11 00:56:48;;;;;;;16.63;3.27;;;;;;;2.39;86.36;100865.00;5053806;28;20442;-64
2021/04/11 00:59:18;;;;;;;12.70;3.30;;;;;;;2.54;87.12;100856.00;5053696;28;20037;-64
2021/04/11 01:01:45;;;;;;;10.23;3.67;;;;;;;2.55;86.93;100848.94;5053007;28;20063;-64
2021/04/11 01:04:12;;;;;;;9.43;3.58;;;;;;;2.47;86.42;100838.13;5052776;28;20147;-64
2021/04/11 01:06:42;;;;;;;12.27;3.60;;;;;;;2.59;86.85;100833.75;5036380;28;20051;-64
2021/04/11 01:09:34;;;;;;;15.20;4.97;;;;;;;2.46;86.93;100824.09;5053348;28;20043;-64
2021/04/11 01:12:05;;;;;;;15.57;5.35;;;;;;;2.46;87.00;100825.91;5049772;28;20056;-64
2021/04/11 01:14:35;;;;;;;16.48;5.10;;;;;;;2.45;87.08;100811.03;5036265;28;20041;-64
2021/04/11 01:17:07;;;;;;;16.73;4.88;;;;;;;2.44;87.04;100807.56;5036086;28;20114;-64
2021/04/11 01:19:36;;;;;;;16.90;4.75;;;;;;;2.48;86.95;100803.75;5052278;28;20423;-64
2021/04/11 01:22:34;;;;;;;13.90;5.28;;;;;;;2.43;86.90;100794.47;5052630;28;20040;-64
2021/04/11 01:25:07;;;;;;;14.80;5.47;;;;;;;2.52;87.36;100797.28;5031982;28;20044;-64
2021/04/11 01:27:35;;;;;;;15.18;5.00;;;;;;;2.47;87.48;100791.50;5052298;28;20042;-64
2021/04/11 01:30:12;;;;;;;13.55;5.05;;;;;;;2.57;87.93;100789.06;5052323;28;20099;-64
2021/04/11 01:32:41;;;;;;;18.60;6.07;;;;;;;2.52;87.62;100789.38;5052518;28;20132;-64
2021/04/11 01:35:09;;;;;;;24.73;7.55;;;;;;;2.45;87.54;100782.88;5052367;28;20855;-64
2021/04/11 01:37:36;;;;;;;17.13;7.53;;;;;;;2.45;87.43;100769.69;5035426;28;20549;-64
2021/04/11 01:40:03;;;;;;;23.33;7.40;;;;;;;2.56;87.45;100773.38;5052215;28;20545;-64
2021/04/11 01:42:29;;;;;;;20.83;7.53;;;;;;;2.42;88.18;100772.56;5052068;28;20037;-64
2021/04/11 01:44:55;;;;;;;18.40;6.87;;;;;;;2.49;88.41;100768.53;5053107;28;20083;-64
2021/04/11 01:47:22;;;;;;;22.15;8.27;;;;;;;2.47;88.53;100769.59;5052053;28;20036;-64
2021/04/11 01:49:47;;;;;;;28.08;11.55;;;;;;;2.52;88.36;100757.75;5035260;28;20028;-64
2021/04/11 01:52:18;;;;;;;29.27;9.73;;;;;;;2.50;88.58;100753.56;5052969;28;20039;-64
2021/04/11 01:54:44;;;;;;;20.25;8.55;;;;;;;2.39;88.38;100742.94;5052906;28;20116;-64
2021/04/11 01:57:16;;;;;;;24.05;8.50;;;;;;;2.38;88.94;100739.47;5035127;28;20417;-64
2021/04/11 01:59:42;;;;;;;22.27;8.40;;;;;;;2.44;89.28;100733.75;5035106;28;20028;-64
2021/04/11 02:02:11;;;;;;;34.13;9.77;;;;;;;2.44;89.29;100733.75;5035332;28;20113;-64
2021/04/11 02:04:36;;;;;;;26.10;9.55;;;;;;;2.45;89.25;100730.16;5052894;28;20120;-64
2021/04/11 02:07:06;;;;;;;30.10;11.07;;;;;;;2.46;89.85;100736.31;5051674;28;20128;-64
2021/04/11 02:09:38;;;;;;;34.97;11.80;;;;;;;2.38;89.69;100728.91;5051417;28;20033;-64
2021/04/11 02:12:21;;;;;;;28.90;10.05;;;;;;;2.44;89.72;100725.03;5051818;28;20039;-64
2021/04/11 02:14:52;;;;;;;30.45;10.75;;;;;;;2.47;89.95;100723.00;5035812;28;20132;-64
2021/04/11 02:17:18;;;;;;;26.13;12.25;;;;;;;2.58;89.84;100718.75;5051460;28;20037;-64
2021/04/11 02:19:44;;;;;;;32.53;11.73;;;;;;;2.52;89.98;100710.31;5051330;28;20029;-64
2021/04/11 02:22:19;;;;;;;34.95;12.60;;;;;;;2.56;90.17;100710.13;5052196;28;20106;-64
2021/04/11 02:24:45;;;;;;;29.33;10.73;;;;;;;2.53;89.85;100704.13;5052439;28;20036;-65
2021/04/11 02:27:18;;;;;;;33.28;12.95;;;;;;;2.58;90.01;100697.66;5051231;28;20063;-65
2021/04/11 02:29:45;;;;;;;30.52;11.57;;;;;;;2.45;89.87;100698.53;5051072;28;20033;-64
2021/04/11 02:32:11;;;;;;;34.28;13.30;;;;;;;2.53;90.29;100690.09;5052155;28;20095;-65
2021/04/11 02:34:37;;;;;;;27.23;12.55;;;;;;;2.47;90.16;100682.63;5052138;28;20453;-65
2021/04/11 02:37:06;;;;;;;29.83;12.07;;;;;;;2.51;90.41;100679.66;5050460;28;20083;-64
2021/04/11 02:39:40;;;;;;;31.00;11.57;;;;;;;2.59;90.35;100670.34;5050995;28;20052;-64
2021/04/11 02:42:11;;;;;;;31.50;11.07;;;;;;;2.60;90.60;100643.88;5052006;28;20039;-65
2021/04/11 02:44:38;;;;;;;29.30;13.38;;;;;;;2.60;90.50;100659.69;5052087;28;20059;-64
2021/04/11 02:47:08;;;;;;;28.23;11.52;;;;;;;2.56;90.78;100646.84;5051860;28;20029;-65
2021/04/11 02:49:34;;;;;;;26.80;11.93;;;;;;;2.46;90.25;100637.00;5034222;28;20043;-64
2021/04/11 02:52:02;;;;;;;;;;;;;;;2.49;90.79;100642.03;5051342;28;20055;-64
2021/04/11 02:54:29;;;;;;;47.20;13.70;;;;;;;2.53;90.82;100626.84;5034216;28;20366;-64
2021/04/11 02:57:04;;;;;;;28.33;12.85;;;;;;;2.48;90.91;100635.09;5050774;28;20132;-64
2021/04/11 02:59:34;;;;;;;26.15;12.65;;;;;;;2.46;90.93;100628.25;5050414;28;20040;-64
2021/04/11 03:02:02;;;;;;;27.33;12.18;;;;;;;2.49;91.08;100635.94;5050766;28;20047;-64
2021/04/11 03:04:29;;;;;;;;;;;;;;;2.47;90.96;100628.13;5050991;28;20069;-64
2021/04/11 03:07:04;;;;;;;25.42;11.93;;;;;;;2.45;91.00;100621.28;5034802;28;19917;-64
2021/04/11 03:09:37;;;;;;;28.63;12.80;;;;;;;2.48;91.02;100618.41;5051269;28;20078;-65
2021/04/11 03:12:06;;;;;;;24.30;12.23;;;;;;;2.54;91.10;100618.81;5050501;28;20047;-65
2021/04/11 03:14:38;;;;;;;25.35;11.35;;;;;;;2.55;91.04;100617.00;5050676;28;20055;-64
2021/04/11 03:17:12;;;;;;;27.80;10.73;;;;;;;2.47;91.05;100616.75;5050567;28;20070;-64
2021/04/11 03:19:44;;;;;;;30.35;10.48;;;;;;;2.52;91.14;100607.53;5050142;28;20037;-65
2021/04/11 03:22:11;;;;;;;22.75;11.82;;;;;;;2.49;91.04;100607.78;5050567;28;20047;-65
2021/04/11 03:24:38;;;;;;;26.10;10.77;;;;;;;2.53;91.28;100595.22;5050329;28;20373;-65
2021/04/11 03:27:13;;;;;;;24.90;9.55;;;;;;;2.46;91.36;100609.81;5050505;28;20119;-65
2021/04/11 03:29:50;;;;;;;23.35;9.63;;;;;;;2.46;91.19;100602.72;5033636;28;20040;-65
2021/04/11 03:32:30;;;;;;;26.88;10.23;;;;;;;2.43;91.08;100602.09;5050374;28;20033;-65
2021/04/11 03:35:01;;;;;;;18.88;9.77;;;;;;;2.52;91.30;100598.78;5051091;28;20041;-65
2021/04/11 03:37:30;;;;;;;21.65;10.27;;;;;;;2.58;91.13;100600.16;5049971;28;20543;-65
2021/04/11 03:39:57;;;;;;;29.42;10.80;;;;;;;2.57;91.19;100586.09;5051146;28;20039;-65
2021/04/11 03:42:27;;;;;;;21.65;9.32;;;;;;;2.59;91.09;100578.09;5051142;28;20029;-65
2021/04/11 03:44:57;;;;;;;20.70;8.98;;;;;;;2.60;91.05;100579.75;5033634;28;20039;-65
2021/04/11 03:47:38;;;;;;;24.70;10.75;;;;;;;2.53;90.84;100574.97;5050254;28;20082;-65
2021/04/11 03:50:12;;;;;;;20.20;9.43;;;;;;;2.60;91.08;100579.75;5054069;28;20045;-65
2021/04/11 03:53:03;;;;;;;20.42;9.70;;;;;;;2.55;90.97;100577.47;5054335;28;20840;-65
2021/04/11 03:55:38;;;;;;;17.58;8.63;;;;;;;2.57;90.79;100564.19;5054009;28;20420;-65
2021/04/11 03:58:27;;;;;;;20.83;8.88;;;;;;;2.66;90.96;100559.06;5054889;28;20120;-64
2021/04/11 04:00:59;;;;;;;21.95;8.88;;;;;;;2.67;91.00;100544.94;5037597;28;20033;-65
2021/04/11 04:03:32;;;;;;;15.35;8.80;;;;;;;2.64;90.76;100539.03;5054147;28;20040;-65
2021/04/11 04:06:09;;;;;;;15.60;7.10;;;;;;;2.63;90.82;100537.38;5054038;28;20053;-65
2021/04/11 04:08:35;;;;;;;15.80;7.57;;;;;;;2.68;90.83;100553.69;5053801;28;20182;-64
2021/04/11 04:11:12;;;;;;;22.90;9.27;;;;;;;2.66;90.83;100537.97;5053921;28;20537;-64
2021/04/11 04:13:57;;;;;;;18.13;9.10;;;;;;;2.69;91.03;100532.47;5054583;28;20358;-64
2021/04/11 04:16:28;;;;;;;19.42;9.18;;;;;;;2.58;90.95;100540.38;5053813;28;20087;-64
2021/04/11 04:19:31;;;;;;;16.85;8.27;;;;;;;2.67;91.11;100534.41;5054555;28;20044;-64
2021/04/11 04:22:04;;;;;;;19.38;9.05;;;;;;;2.77;91.25;100528.41;5049797;28;20164;-64
2021/04/11 04:25:04;;;;;;;15.90;8.38;;;;;;;2.77;91.31;100523.16;5053747;28;20040;-64
2021/04/11 04:27:55;;;;;;;20.83;8.57;;;;;;;2.75;91.33;100523.25;5053300;28;20102;-64
2021/04/11 04:30:27;;;;;;;17.50;8.38;;;;;;;2.71;91.42;100520.00;5053619;28;20048;-65
2021/04/11 04:33:18;;;;;;;17.73;8.40;;;;;;;2.80;91.40;100523.75;5053602;28;20037;-64
2021/04/11 04:35:48;;;;;;;21.52;9.27;;;;;;;2.75;91.45;100507.44;5053424;28;20128;-64
2021/04/11 04:38:25;;;;;;;15.48;9.02;;;;;;;2.79;91.52;100500.97;5054250;28;20084;-64
2021/04/11 04:41:09;;;;;;;18.15;9.70;;;;;;;2.79;91.32;100502.78;5054371;28;20037;-64
2021/04/11 04:44:01;;;;;;;23.15;9.95;;;;;;;2.86;91.84;100504.00;5037098;28;20036;-64
2021/04/11 04:46:55;;;;;;;22.48;10.45;;;;;;;2.88;91.71;100487.09;5053268;28;20138;-64
2021/04/11 04:49:27;;;;;;;20.80;9.73;;;;;;;2.84;91.71;100490.91;5052856;28;20083;-64
2021/04/11 04:52:00;;;;;;;23.67;11.50;;;;;;;2.88;91.81;100476.53;5036623;28;20076;-64
2021/04/11 04:55:12;;;;;;;24.65;12.25;;;;;;;2.83;91.82;100472.56;5053200;28;20024;-64
2021/04/11 04:57:48;;;;;;;24.58;11.27;;;;;;;2.79;92.00;100477.25;4975781;28;20476;-64
2021/04/11 05:00:27;;;;;;;20.55;10.82;;;;;;;2.82;92.05;100473.53;4976029;28;20096;-64
2021/04/11 05:03:06;;;;;;;27.77;11.82;;;;;;;2.96;92.29;100473.28;5035387;28;20053;-64
2021/04/11 05:05:39;;;;;;;26.73;11.55;;;;;;;2.99;92.31;100469.56;5053857;28;20037;-64
2021/04/11 05:08:24;;;;;;;24.48;11.90;;;;;;;3.04;92.17;100462.13;5052662;28;20029;-64
2021/04/11 05:11:06;;;;;;;25.90;12.75;;;;;;;2.95;92.25;100454.00;5053744;28;20036;-64
2021/04/11 05:13:52;;;;;;;23.15;11.25;;;;;;;3.00;92.60;100455.41;5036897;28;20148;-64
2021/04/11 05:16:25;;;;;;;30.50;13.55;;;;;;;2.97;92.51;100456.50;5036384;28;20033;-64
2021/04/11 05:19:09;;;;;;;31.95;13.30;;;;;;;3.00;92.55;100455.41;5052078;28;20029;-64
2021/04/11 05:21:51;;;;;;;43.70;18.95;;;;;;;3.02;92.67;100442.94;5037510;28;20056;-64
2021/04/11 05:24:22;;;;;;;31.50;15.00;;;;;;;3.09;92.78;100450.28;5053588;28;20047;-65
2021/04/11 05:26:56;;;;;;;29.00;14.95;;;;;;;3.15;92.81;100448.94;5036204;28;20393;-64
2021/04/11 05:29:45;;;;;;;31.83;14.55;;;;;;;3.16;92.83;100435.63;5053074;28;20060;-64
2021/04/11 05:32:13;;;;;;;32.90;16.02;;;;;;;3.21;92.77;100432.63;5053399;28;20103;-64
2021/04/11 05:34:39;;;;;;;34.92;15.95;;;;;;;3.22;92.76;100433.47;5052297;28;20462;-65
2021/04/11 05:37:31;;;;;;;28.85;16.08;;;;;;;3.31;93.40;100427.44;5052225;28;20028;-64
2021/04/11 05:40:23;;;;;;;21.60;12.48;;;;;;;4.69;94.43;100420.41;5053269;28;20764;-64
2021/04/11 05:42:54;;;;;;;21.67;11.95;;;;;;;4.64;91.60;100418.16;5053100;28;20048;-64
2021/04/11 05:45:34;;;;;;;23.52;13.00;;;;;;;4.37;89.71;100416.88;5053216;28;20037;-64
2021/04/11 05:48:24;;;;;;;23.88;13.15;;;;;;;3.88;88.62;100426.28;5052821;28;20047;-64
2021/04/11 05:50:56;;;;;;;28.70;15.48;;;;;;;3.54;90.25;100417.69;5052980;28;20041;-65
2021/04/11 05:53:44;;;;;;;33.53;16.42;;;;;;;3.45;91.27;100413.16;5051949;28;20083;-64
2021/04/11 05:56:22;;;;;;;32.28;16.02;;;;;;;3.48;91.70;100407.59;5052800;28;20036;-64
2021/04/11 05:58:53;;;;;;;35.22;16.15;;;;;;;3.52;91.74;100414.31;5052426;28;20036;-65
2021/04/11 06:01:23;;;;;;;39.38;19.73;;;;;;;3.48;92.12;100408.44;5051869;28;20040;-65
2021/04/11 06:04:00;;;;;;;36.88;19.08;;;;;;;3.42;92.31;100403.69;5052809;28;20450;-65
2021/04/11 06:06:55;;;;;;;37.53;18.75;;;;;;;3.52;92.52;100393.19;5051790;28;20130;-64
2021/04/11 06:09:31;;;;;;;36.80;18.40;;;;;;;3.42;92.70;100408.09;5051003;28;20052;-64
2021/04/11 06:12:09;;;;;;;38.05;20.00;;;;;;;3.48;92.88;100404.97;5050310;28;20028;-65
2021/04/11 06:14:36;;;;;;;42.80;19.42;;;;;;;3.50;93.23;100397.75;5034269;28;20086;-65
2021/04/11 06:17:11;;;;;;;43.67;21.58;;;;;;;3.51;93.44;100397.66;5052215;28;20052;-64
2021/04/11 06:19:42;;;;;;;46.08;20.08;;;;;;;3.51;93.34;100391.50;5050881;28;20482;-64
2021/04/11 06:22:07;;;;;;;45.17;20.25;;;;;;;3.62;93.45;100391.47;5051441;28;20033;-65
2021/04/11 06:24:58;;;;;;;43.17;21.73;;;;;;;3.66;93.26;100389.44;5052262;28;20070;-65
2021/04/11 06:27:51;;;;;;;45.08;20.88;;;;;;;3.66;93.27;100378.88;5034426;28;20044;-65
2021/04/11 06:30:23;;;;;;;48.90;22.17;;;;;;;3.64;93.34;100373.72;5051232;28;20045;-71
2021/04/11 06:32:57;;;;;;;49.03;22.45;;;;;;;3.74;93.43;100368.50;5051332;28;20040;-72
2021/04/11 06:35:29;;;;;;;47.65;22.10;;;;;;;3.74;93.54;100368.50;5052172;28;20056;-71
2021/04/11 06:38:00;;;;;;;46.72;23.65;;;;;;;3.73;93.64;100366.84;5051725;28;20093;-71
2021/04/11 06:40:57;;;;;;;44.17;21.85;;;;;;;3.77;93.84;100361.16;5034314;28;20044;-71
2021/04/11 06:44:00;;;;;;;53.80;23.63;;;;;;;3.87;93.91;100357.75;5051985;28;20078;-65
2021/04/11 06:46:43;;;;;;;50.92;24.05;;;;;;;3.79;93.90;100367.16;5051821;28;20434;-65
2021/04/11 06:49:36;;;;;;;51.95;24.10;;;;;;;3.91;93.91;100369.72;5051547;28;20033;-65
2021/04/11 06:52:30;;;;;;;47.35;22.42;;;;;;;3.91;94.13;100364.44;5051648;28;20132;-65
2021/04/11 06:55:29;;;;;;;52.78;23.38;;;;;;;3.97;93.88;100353.38;5051554;28;20056;-65
2021/04/11 06:58:02;;;;;;;50.25;22.90;;;;;;;3.98;93.90;100352.38;5019178;28;20401;-65
2021/04/11 07:00:48;;;;;;;52.15;23.67;;;;;;;3.99;94.10;100348.78;5051669;28;20091;-65
2021/04/11 07:03:37;;;;;;;52.53;25.38;;;;;;;4.02;94.44;100344.06;5050423;28;20069;-65
2021/04/11 07:06:33;;;;;;;59.17;26.52;;;;;;;4.13;94.39;100337.88;5051632;28;20460;-65
2021/04/11 07:09:33;;;;;;;55.13;26.33;;;;;;;4.17;94.38;100346.41;5051127;28;20036;-64
2021/04/11 07:12:36;;;;;;;56.90;26.83;;;;;;;4.19;94.66;100337.38;5033672;28;20033;-64
2021/04/11 07:15:05;;;;;;;53.53;25.42;;;;;;;4.23;94.55;100335.28;5050470;28;20050;-64
2021/04/11 07:17:54;;;;;;;67.22;29.02;;;;;;;4.23;94.81;100336.13;5049912;28;20032;-65
2021/04/11 07:20:33;;;;;;;68.53;30.95;;;;;;;4.33;95.29;100330.06;5050439;28;20506;-64
2021/04/11 07:23:25;;;;;;;72.47;30.55;;;;;;;4.33;95.10;100345.91;5049939;28;20102;-65
2021/04/11 07:26:05;;;;;;;66.53;31.13;;;;;;;4.36;95.12;100330.63;5051244;28;20516;-64
2021/04/11 07:28:54;;;;;;;74.00;30.80;;;;;;;4.41;94.94;100333.72;5050633;28;20044;-65
2021/04/11 07:31:54;;;;;;;65.03;31.08;;;;;;;4.46;95.00;100341.25;5050189;28;20044;-65
2021/04/11 07:34:32;;;;;;;68.00;30.15;;;;;;;4.50;95.24;100336.53;5050028;28;20159;-65
2021/04/11 07:37:23;;;;;;;68.10;30.70;;;;;;;4.64;95.03;100338.81;5050049;28;20040;-65
2021/04/11 07:40:13;;;;;;;65.13;28.67;;;;;;;4.67;95.10;100329.78;5050698;28;20036;-65
2021/04/11 07:43:00;;;;;;;70.65;31.88;;;;;;;4.71;95.04;100337.31;5050011;28;20120;-65
2021/04/11 07:45:33;;;;;;;65.50;31.88;;;;;;;4.74;95.10;100333.56;5050874;28;20067;-64
2021/04/11 07:48:40;;;;;;;57.78;27.23;;;;;;;4.81;95.03;100321.47;5049698;28;20036;-64
2021/04/11 07:51:48;;;;;;;61.00;29.08;;;;;;;4.97;95.36;100321.78;5011095;28;20041;-65
2021/04/11 07:54:45;;;;;;;64.00;29.33;;;;;;;4.97;95.15;100310.38;5050973;28;20025;-65
2021/04/11 07:57:29;;;;;;;71.63;32.40;;;;;;;4.97;95.11;100307.72;5050705;28;20037;-65
2021/04/11 08:00:08;;;;;;;61.45;29.55;;;;;;;5.07;95.20;100311.19;5033310;28;20044;-65
2021/04/11 08:02:43;;;;;;;62.67;30.13;;;;;;;5.21;95.08;100315.25;5050958;28;20485;-65
2021/04/11 08:05:27;;;;;;;60.38;27.73;;;;;;;5.17;95.14;100316.50;5033062;28;20461;-66
2021/04/11 08:08:19;;;;;;;59.95;28.15;;;;;;;5.25;95.24;100321.94;5049511;28;20063;-65
2021/04/11 08:11:02;;;;;;;58.63;29.15;;;;;;;5.32;95.14;100316.94;5050605;28;20040;-65
2021/04/11 08:14:12;;;;;;;51.97;26.17;;;;;;;5.67;94.82;100319.03;5050493;28;20033;-65
2021/04/11 08:16:56;;;;;;;44.60;24.73;;;;;;;5.52;94.75;100328.34;4989396;28;20129;-65
2021/04/11 08:19:37;;;;;;;47.15;25.02;;;;;;;5.52;94.58;100326.53;5042686;28;20072;-65
2021/04/11 08:22:30;;;;;;;52.20;26.55;;;;;;;5.53;94.79;100322.09;5032898;28;20041;-65
2021/04/11 08:25:37;;;;;;;52.30;26.63;;;;;;;5.50;94.72;100323.19;5049534;28;20029;-65
2021/04/11 08:28:42;;;;;;;53.65;26.52;;;;;;;5.52;94.72;100323.06;5022419;28;20485;-65
2021/04/11 08:31:44;;;;;;;40.30;21.00;;;;;;;5.59;94.58;100313.56;5049664;28;20075;-66
2021/04/11 08:34:47;;;;;;;49.45;26.73;;;;;;;5.68;94.85;100333.91;5032953;28;20065;-66
2021/04/11 08:37:33;;;;;;;59.35;29.73;;;;;;;5.63;95.04;100336.16;5052947;28;20048;-66
2021/04/11 08:40:20;;;;;;;54.95;28.77;;;;;;;5.65;94.86;100334.22;5054067;28;20024;-65
2021/04/11 08:43:14;;;;;;;53.78;28.95;;;;;;;5.78;95.04;100334.72;5053614;28;20029;-66
2021/04/11 08:46:16;;;;;;;60.75;30.88;;;;;;;5.90;95.12;100327.50;5051349;28;20548;-66
2021/04/11 08:48:59;;;;;;;61.97;30.55;;;;;;;5.87;95.05;100333.06;5052276;28;20541;-66
2021/04/11 08:51:37;;;;;;;61.75;31.77;;;;;;;6.01;95.29;100335.28;5051533;28;20458;-66
2021/04/11 08:54:37;;;;;;;60.58;31.85;;;;;;;6.13;95.42;100339.47;5052319;28;20476;-65
2021/04/11 08:57:24;;;;;;;71.43;35.20;;;;;;;6.29;95.60;100328.22;5040290;28;20132;-66
2021/04/11 09:00:05;;;;;;;66.80;34.70;;;;;;;6.51;95.48;100334.19;5052553;28;20037;-66
2021/04/11 09:03:08;;;;;;;64.10;31.15;;;;;;;6.62;95.18;100330.47;5053710;28;20450;-65
2021/04/11 09:05:53;;;;;;;62.22;34.38;;;;;;;6.68;95.09;100336.03;5052702;28;20037;-65
2021/04/11 09:09:03;;;;;;;67.13;35.15;;;;;;;6.88;95.23;100333.25;5053144;28;20048;-65
2021/04/11 09:11:49;;;;;;;68.10;34.90;;;;;;;7.07;95.08;100334.97;5052577;28;20044;-65
2021/04/11 09:14:26;;;;;;;61.08;34.00;;;;;;;7.16;95.03;100337.59;5052153;28;20115;-65
2021/04/11 09:16:59;;;;;;;62.13;35.30;;;;;;;7.26;94.73;100320.72;5053111;28;20102;-64
2021/04/11 09:19:37;;;;;;;62.92;32.95;;;;;;;7.27;94.61;100319.75;5034713;28;20037;-64
2021/04/11 09:22:09;;;;;;;63.38;34.53;;;;;;;7.36;94.36;100326.81;5053525;28;20354;-64
2021/04/11 09:24:41;;;;;;;51.85;30.65;;;;;;;7.44;94.05;100337.50;5052434;28;20041;-64
2021/04/11 09:27:24;;;;;;;60.35;35.40;;;;;;;7.47;93.71;100347.84;5053251;28;20048;-64
2021/04/11 09:29:53;;;;;;;58.67;33.75;;;;;;;7.58;93.84;100330.81;5052285;28;20102;-64
2021/04/11 09:32:54;;;;;;;57.40;33.15;;;;;;;7.70;93.59;100320.78;5052325;28;20041;-65
2021/04/11 09:35:25;;;;;;;56.58;31.65;;;;;;;7.83;93.21;100326.53;5035419;28;20466;-65
2021/04/11 09:38:23;;;;;;;58.83;35.28;;;;;;;7.91;92.72;100318.59;5051908;28;20112;-65
2021/04/11 09:41:31;;;;;;;49.70;30.42;;;;;;;8.02;92.43;100321.00;4998760;28;20128;-66
2021/04/11 09:44:27;;;;;;;54.65;30.17;;;;;;;7.97;92.55;100336.59;5052798;28;20045;-65
2021/04/11 09:47:03;;;;;;;48.42;28.15;;;;;;;8.02;92.10;100326.31;5035090;28;20029;-65
2021/04/11 09:49:53;;;;;;;48.25;28.65;;;;;;;8.14;91.65;100334.03;5034957;28;20172;-64
2021/04/11 09:52:41;;;;;;;46.53;27.67;;;;;;;8.33;91.33;100328.50;5051971;28;20052;-65
2021/04/11 09:55:12;;;;;;;54.97;32.85;;;;;;;8.53;91.68;100321.16;5034373;28;20056;-64
2021/04/11 09:58:00;;;;;;;49.53;29.02;;;;;;;8.66;91.24;100336.66;5051502;28;20040;-64
2021/04/11 10:00:55;;;;;;;46.20;26.90;;;;;;;8.68;91.37;100340.00;5034828;28;20037;-64
2021/04/11 10:03:52;;;;;;;41.90;25.80;;;;;;;8.56;90.45;100351.94;5052780;28;20673;-64
2021/04/11 10:06:41;;;;;;;43.58;25.40;;;;;;;8.45;90.64;100353.03;5052596;28;20047;-63
2021/04/11 10:09:34;;;;;;;44.63;27.50;;;;;;;8.49;90.76;100354.38;5052197;28;20472;-63
2021/04/11 10:12:24;;;;;;;42.88;24.63;;;;;;;8.53;90.51;100349.59;5034713;28;20056;-63
2021/04/11 10:15:21;;;;;;;44.70;25.65;;;;;;;8.49;90.72;100350.91;5052395;28;20040;-63
2021/04/11 10:18:24;;;;;;;38.45;25.80;;;;;;;8.62;90.29;100336.16;5051694;28;20040;-63
2021/04/11 10:21:01;;;;;;;42.95;26.20;;;;;;;8.66;89.38;100326.03;5051461;28;20040;-63
2021/04/11 10:24:00;;;;;;;40.03;24.15;;;;;;;8.72;89.39;100336.03;5052149;28;20049;-63
2021/04/11 10:26:38;;;;;;;41.70;27.23;;;;;;;8.78;89.74;100340.72;5052095;28;20041;-63
2021/04/11 10:29:13;;;;;;;43.97;26.88;;;;;;;8.86;89.56;100354.06;5050905;28;20052;-63
2021/04/11 10:31:49;;;;;;;40.17;24.67;;;;;;;8.88;88.49;100353.91;5051956;28;20043;-63
2021/04/11 10:34:32;;;;;;;37.85;24.60;;;;;;;8.90;89.06;100343.06;5052070;28;20075;-63
2021/04/11 10:37:06;;;;;;;37.70;23.98;;;;;;;8.96;88.34;100339.78;5051742;28;20075;-63
2021/04/11 10:40:04;;;;;;;37.33;22.40;;;;;;;9.02;87.53;100333.81;5050718;28;20480;-63
2021/04/11 10:42:48;;;;;;;34.63;22.75;;;;;;;9.37;87.38;100332.72;5051918;28;20484;-64
2021/04/11 10:45:45;;;;;;;40.47;24.00;;;;;;;9.29;87.04;100336.22;5050876;28;20512;-64
2021/04/11 10:48:41;;;;;;;33.53;22.10;;;;;;;9.25;86.65;100332.19;5051071;28;20076;-64
2021/04/11 10:51:40;;;;;;;32.40;20.92;;;;;;;9.34;86.59;100342.84;5051762;28;20702;-64
2021/04/11 10:54:27;;;;;;;32.47;21.45;;;;;;;9.39;86.40;100343.19;5050648;28;20131;-64
2021/04/11 10:57:13;;;;;;;31.80;21.35;;;;;;;9.45;85.41;100347.88;5050499;28;20131;-64
2021/04/11 11:00:08;;;;;;;31.98;22.17;;;;;;;9.51;85.93;100344.56;5009642;28;20109;-65
2021/04/11 11:02:55;;;;;;;31.75;21.15;;;;;;;9.38;85.80;100338.88;5034038;28;20124;-64
2021/04/11 11:05:38;;;;;;;32.30;21.23;;;;;;;9.35;85.91;100347.19;5033945;28;20453;-64
2021/04/11 11:08:17;;;;;;;33.83;21.05;;;;;;;9.22;86.09;100347.66;5050335;28;20041;-64
2021/04/11 11:11:09;;;;;;;30.08;20.40;;;;;;;9.13;85.86;100336.19;5033910;28;20068;-65
2021/04/11 11:14:22;;;;;;;35.15;21.90;;;;;;;9.13;85.79;100343.31;5050456;28;20131;-64
2021/04/11 11:17:25;;;;;;;30.58;19.20;;;;;;;9.17;85.98;100340.16;5037059;28;20094;-64
2021/04/11 11:20:19;;;;;;;27.23;18.48;;;;;;;9.11;85.83;100340.84;5050046;28;20044;-64
2021/04/11 11:23:12;;;;;;;30.75;18.58;;;;;;;9.14;86.06;100342.34;5033764;28;20071;-64
2021/04/11 11:26:11;;;;;;;30.65;20.23;;;;;;;9.07;86.20;100345.63;5051198;28;20051;-64
2021/04/11 11:28:53;;;;;;;31.95;19.60;;;;;;;9.18;85.53;100336.50;5050982;28;20094;-64
2021/04/11 11:31:28;;;;;;;26.60;17.85;;;;;;;9.16;85.55;100341.16;5050014;28;20033;-64
2021/04/11 11:34:16;;;;;;;33.95;21.42;;;;;;;9.19;86.07;100348.00;5051026;28;20102;-64
2021/04/11 11:37:19;;;;;;;30.35;19.77;;;;;;;9.25;85.91;100350.84;5049862;28;20041;-64
2021/04/11 11:39:48;;;;;;;27.73;18.63;;;;;;;9.33;86.09;100343.88;5049801;28;20040;-64
2021/04/11 11:42:52;;;;;;;26.63;18.63;;;;;;;9.31;85.15;100352.00;5049925;28;20124;-64
2021/04/11 11:45:50;;;;;;;25.88;17.35;;;;;;;9.76;83.77;100348.03;5006377;28;20048;-64
2021/04/11 11:48:33;;;;;;;23.35;15.85;;;;;;;10.53;81.87;100361.78;5026211;28;20099;-64
2021/04/11 11:51:23;;;;;;;21.67;15.20;;;;;;;11.31;80.00;100354.78;5035517;28;21247;-63
2021/04/11 11:54:22;;;;;;;21.27;13.10;;;;;;;10.65;77.07;100362.28;5031972;28;20417;-64
2021/04/11 11:57:52;;;;;;;14.00;10.98;;;;;;;10.27;77.45;100372.66;5038657;28;20036;-64
2021/04/11 12:00:26;;;;;;;12.68;9.07;;;;;;;9.93;76.91;100363.06;4956404;28;20047;-63
2021/04/11 12:03:34;;;;;;;11.18;8.50;;;;;;;10.26;77.57;100379.03;5032428;28;20045;-64
2021/04/11 12:06:13;;;;;;;13.23;9.18;;;;;;;10.00;76.38;100384.56;5043800;28;20070;-64
2021/04/11 12:08:55;;;;;;;10.75;8.18;;;;;;;9.83;78.15;100383.72;5029871;28;20099;-63
2021/04/11 12:11:43;;;;;;;12.52;9.35;;;;;;;9.41;79.11;100397.16;5036200;28;20048;-64
2021/04/11 12:14:20;;;;;;;13.85;9.93;;;;;;;9.14;79.27;100401.75;5054623;28;20033;-64
2021/04/11 12:16:57;;;;;;;12.43;8.85;;;;;;;9.02;79.91;100413.69;5036848;28;20033;-63
2021/04/11 12:19:33;;;;;;;12.02;9.57;;;;;;;9.16;79.75;100415.75;5036616;28;20036;-64
2021/04/11 12:22:14;;;;;;;13.68;9.82;;;;;;;9.18;80.97;100421.75;5053531;28;20064;-63